Holt, Michigan
Current Conditions -  °F | °C
As of 11:52 PM on Wednesday 22 Oct 2014 (Local Time) from KTEW Reporting Station
Clear Clear  
Wind Chill: 32°   Ceiling: Unl
Heat Index: 32°   Visibility: 7mi
Dew Point: 32°   Wind: 0mph
Humidity: 99%   Direction: NA
Pressure: 30.28"   Gusts: NA
Location:  42.64°N, 84.51°W
Report Text: KTEW 230352Z AUTO 00000KT 7SM CLR 00/00 A3028 RMK AO2 T00011001
Loading
Personal Weather Stations






























Interactive Weather Map
Tropical Storm Tracking
New forecast layout! Learn more

10-Day Weather Forecast

Advertisements
Track Severe Weather on mobile